Time;durP1;ratioP1;P1;durP2;ratioP2;P2;SDS_P1;SDS_P2;PMS_P1;PMS_P2;Temp;Humidity;BMP_temperature;BMP_pressure;BME280_temperature;BME280_humidity;BME280_pressure;Samples;Min_cycle;Max_cycle;Signal;HPM_P1;HPM_P2
2021/05/08 00:01:31;;;;;;;5.50;3.25;;;;;;;;;;5084049;28;20032;-69
2021/05/08 00:03:57;;;;;;;6.43;3.50;;;;;;;;;;5071514;28;20466;-70
2021/05/08 00:06:23;;;;;;;4.90;3.22;;;;;;;;;;5071919;28;20497;-69
2021/05/08 00:08:49;;;;;;;4.97;3.53;;;;;;;;;;5087734;28;20478;-70
2021/05/08 00:11:15;;;;;;;6.03;3.33;;;;;;;;;;5071846;28;20043;-70
2021/05/08 00:13:41;;;;;;;4.22;3.13;;;;;;;;;;5071316;28;20049;-69
2021/05/08 00:16:07;;;;;;;5.30;3.47;;;;;;;;;;5071701;28;20028;-69
2021/05/08 00:18:33;;;;;;;5.13;3.40;;;;;;;;;;5071419;28;20056;-69
2021/05/08 00:20:59;;;;;;;4.85;3.17;;;;;;;;;;5073715;28;20490;-69
2021/05/08 00:23:26;;;;;;;4.78;3.38;;;;;;;;;;5085810;28;20427;-69
2021/05/08 00:25:53;;;;;;;6.15;3.40;;;;;;;;;;5095399;28;20044;-70
2021/05/08 00:28:19;;;;;;;5.30;3.42;;;;;;;;;;5095837;28;20077;-69
2021/05/08 00:30:45;;;;;;;4.63;3.15;;;;;;;;;;5093602;28;20453;-69
2021/05/08 00:33:11;;;;;;;6.03;3.35;;;;;;;;;;5053531;28;20364;-70
2021/05/08 00:35:37;;;;;;;5.70;3.22;;;;;;;;;;5054978;28;20025;-70
2021/05/08 00:38:03;;;;;;;3.97;3.20;;;;;;;;;;5054889;28;20025;-69
2021/05/08 00:40:29;;;;;;;4.13;3.30;;;;;;;;;;5054415;28;20083;-70
2021/05/08 00:42:55;;;;;;;4.20;2.90;;;;;;;;;;5054551;28;20072;-70
2021/05/08 00:45:21;;;;;;;4.57;3.20;;;;;;;;;;5053601;28;20485;-70
2021/05/08 00:47:48;;;;;;;4.60;3.28;;;;;;;;;;5054656;28;20029;-69
2021/05/08 00:50:16;;;;;;;4.95;3.10;;;;;;;;;;5054297;28;20031;-69
2021/05/08 00:52:42;;;;;;;4.70;3.40;;;;;;;;;;5053563;28;20021;-69
2021/05/08 00:55:08;;;;;;;4.20;3.00;;;;;;;;;;5054707;28;20451;-69
2021/05/08 00:57:34;;;;;;;5.05;3.20;;;;;;;;;;5051551;28;20035;-70
2021/05/08 01:00:01;;;;;;;4.90;3.38;;;;;;;;;;5054564;28;20114;-69
2021/05/08 01:02:27;;;;;;;4.05;2.92;;;;;;;;;;5065334;28;20036;-69
2021/05/08 01:04:53;;;;;;;4.05;2.97;;;;;;;;;;5070387;28;20510;-70
2021/05/08 01:07:19;;;;;;;4.38;2.97;;;;;;;;;;5054544;28;20028;-70
2021/05/08 01:09:45;;;;;;;3.97;2.80;;;;;;;;;;5069590;28;20482;-70
2021/05/08 01:12:12;;;;;;;4.28;3.08;;;;;;;;;;5054035;28;20028;-69
2021/05/08 01:14:38;;;;;;;4.50;3.28;;;;;;;;;;5069729;28;20167;-70
2021/05/08 01:17:04;;;;;;;5.72;3.30;;;;;;;;;;5069769;28;20029;-70
2021/05/08 01:19:30;;;;;;;4.25;3.10;;;;;;;;;;5069909;28;20037;-70
2021/05/08 01:21:56;;;;;;;4.50;3.13;;;;;;;;;;5069925;28;20033;-70
2021/05/08 01:24:22;;;;;;;4.60;3.10;;;;;;;;;;5090357;28;20024;-69
2021/05/08 01:26:48;;;;;;;4.82;3.20;;;;;;;;;;5094615;28;20406;-70
2021/05/08 01:29:14;;;;;;;4.53;3.00;;;;;;;;;;5094522;28;20012;-69
2021/05/08 01:31:40;;;;;;;4.30;3.00;;;;;;;;;;5094111;28;20024;-69
2021/05/08 01:34:06;;;;;;;4.38;3.00;;;;;;;;;;5094364;28;20024;-69
2021/05/08 01:36:33;;;;;;;3.90;2.97;;;;;;;;;;5094263;28;20028;-70
2021/05/08 01:39:00;;;;;;;3.40;2.83;;;;;;;;;;5092884;28;20028;-69
2021/05/08 01:41:26;;;;;;;4.15;2.88;;;;;;;;;;5094091;28;20095;-70
2021/05/08 01:43:52;;;;;;;4.50;3.00;;;;;;;;;;5093992;28;20031;-70
2021/05/08 01:46:18;;;;;;;5.25;2.92;;;;;;;;;;5093885;28;20027;-69
2021/05/08 01:48:44;;;;;;;3.97;2.88;;;;;;;;;;5093963;28;20058;-69
2021/05/08 01:51:10;;;;;;;4.07;3.03;;;;;;;;;;5094117;28;20024;-69
2021/05/08 01:53:36;;;;;;;3.92;2.97;;;;;;;;;;5093630;28;20051;-71
2021/05/08 01:56:02;;;;;;;4.15;2.95;;;;;;;;;;5093988;28;20104;-71
2021/05/08 01:58:28;;;;;;;4.40;2.70;;;;;;;;;;5093714;28;20466;-69
2021/05/08 02:00:54;;;;;;;3.40;2.78;;;;;;;;;;5090265;28;20475;-69
2021/05/08 02:03:20;;;;;;;4.82;2.90;;;;;;;;;;5073326;28;20021;-69
2021/05/08 02:05:47;;;;;;;4.57;3.10;;;;;;;;;;5073374;28;20024;-70
2021/05/08 02:08:13;;;;;;;4.45;3.08;;;;;;;;;;5073572;28;20428;-69
2021/05/08 02:10:40;;;;;;;3.40;2.75;;;;;;;;;;5073383;28;20027;-70
2021/05/08 02:13:06;;;;;;;3.88;2.85;;;;;;;;;;5072921;28;20041;-70
2021/05/08 02:15:32;;;;;;;4.65;3.00;;;;;;;;;;5072918;28;20111;-70
2021/05/08 02:17:59;;;;;;;4.45;2.88;;;;;;;;;;5073081;28;20470;-70
2021/05/08 02:20:26;;;;;;;3.33;2.83;;;;;;;;;;5073457;28;20021;-71
2021/05/08 02:22:53;;;;;;;3.75;2.72;;;;;;;;;;5078552;28;20034;-70
2021/05/08 02:25:19;;;;;;;3.92;3.00;;;;;;;;;;5093254;28;20510;-70
2021/05/08 02:27:45;;;;;;;4.90;2.85;;;;;;;;;;5093393;28;20031;-70
2021/05/08 02:30:12;;;;;;;4.50;3.10;;;;;;;;;;5093437;28;20024;-70
2021/05/08 02:32:38;;;;;;;3.63;3.00;;;;;;;;;;5092706;28;20032;-69
2021/05/08 02:35:04;;;;;;;3.22;2.83;;;;;;;;;;5091853;28;20111;-70
2021/05/08 02:37:31;;;;;;;4.20;2.90;;;;;;;;;;5093260;28;20028;-69
2021/05/08 02:39:57;;;;;;;3.58;2.63;;;;;;;;;;5092806;28;20024;-70
2021/05/08 02:42:23;;;;;;;5.22;3.28;;;;;;;;;;5092808;28;20035;-69
2021/05/08 02:44:49;;;;;;;3.35;2.60;;;;;;;;;;5093027;28;20024;-70
2021/05/08 02:47:19;;;;;;;3.75;2.67;;;;;;;;;;5093051;28;20507;-70
2021/05/08 02:49:54;;;;;;;3.17;2.70;;;;;;;;;;5093677;28;20016;-69
2021/05/08 02:52:20;;;;;;;3.40;2.70;;;;;;;;;;5063251;28;20063;-69
2021/05/08 02:54:47;;;;;;;3.47;2.65;;;;;;;;;;5052924;28;20052;-70
2021/05/08 02:57:13;;;;;;;3.65;2.67;;;;;;;;;;5052446;28;20021;-69
2021/05/08 02:59:39;;;;;;;3.28;2.80;;;;;;;;;;5050623;28;20032;-69
2021/05/08 03:02:05;;;;;;;3.58;2.63;;;;;;;;;;5064682;28;20036;-70
2021/05/08 03:04:31;;;;;;;3.25;2.53;;;;;;;;;;5072583;28;20077;-70
2021/05/08 03:06:57;;;;;;;3.38;2.78;;;;;;;;;;5072436;28;20040;-70
2021/05/08 03:09:23;;;;;;;3.85;2.75;;;;;;;;;;5068064;28;20017;-70
2021/05/08 03:11:50;;;;;;;3.92;2.70;;;;;;;;;;5064424;28;20119;-70
2021/05/08 03:14:16;;;;;;;2.55;2.35;;;;;;;;;;5071900;28;20490;-70
2021/05/08 03:16:43;;;;;;;3.88;2.80;;;;;;;;;;5072472;28;20142;-70
2021/05/08 03:19:09;;;;;;;3.80;2.78;;;;;;;;;;5072443;28;20024;-69
2021/05/08 03:21:35;;;;;;;3.25;2.55;;;;;;;;;;5072497;28;20028;-69
2021/05/08 03:24:04;;;;;;;3.50;2.70;;;;;;;;;;5087233;28;20111;-70
2021/05/08 03:26:31;;;;;;;3.13;2.55;;;;;;;;;;5092616;28;20097;-69
2021/05/08 03:28:57;;;;;;;3.03;2.55;;;;;;;;;;5092630;28;20028;-69
2021/05/08 03:31:23;;;;;;;2.92;2.63;;;;;;;;;;5091037;28;20016;-70
2021/05/08 03:33:49;;;;;;;3.08;2.60;;;;;;;;;;5091400;28;20024;-70
2021/05/08 03:36:15;;;;;;;3.65;2.78;;;;;;;;;;5092479;28;20077;-70
2021/05/08 03:38:41;;;;;;;2.92;2.55;;;;;;;;;;5092209;28;20066;-70
2021/05/08 03:41:07;;;;;;;3.10;2.50;;;;;;;;;;5092536;28;20023;-70
2021/05/08 03:43:33;;;;;;;3.20;2.70;;;;;;;;;;5092166;28;20055;-70
2021/05/08 03:45:59;;;;;;;3.10;2.40;;;;;;;;;;5091942;28;20416;-70
2021/05/08 03:48:26;;;;;;;3.92;2.63;;;;;;;;;;5092594;28;20073;-69
2021/05/08 03:50:52;;;;;;;3.15;2.38;;;;;;;;;;5092109;28;20047;-69
2021/05/08 03:53:19;;;;;;;4.97;3.03;;;;;;;;;;5091821;28;20047;-69
2021/05/08 03:55:45;;;;;;;3.35;2.60;;;;;;;;;;5093672;28;20028;-70
2021/05/08 03:58:11;;;;;;;2.60;2.40;;;;;;;;;;5096589;28;20020;-69
2021/05/08 04:00:37;;;;;;;4.47;2.80;;;;;;;;;;5095140;28;20038;-69
2021/05/08 04:03:03;;;;;;;3.92;2.55;;;;;;;;;;5075719;28;20028;-70
2021/05/08 04:05:30;;;;;;;3.35;2.75;;;;;;;;;;5075598;28;20025;-70
2021/05/08 04:07:56;;;;;;;3.08;2.50;;;;;;;;;;5075654;28;20021;-70
2021/05/08 04:10:22;;;;;;;3.55;2.60;;;;;;;;;;5075745;28;20370;-71
2021/05/08 04:12:48;;;;;;;2.97;2.63;;;;;;;;;;5075520;28;20402;-70
2021/05/08 04:15:14;;;;;;;2.75;2.47;;;;;;;;;;5075207;28;20039;-70
2021/05/08 04:17:40;;;;;;;3.00;2.70;;;;;;;;;;5075542;28;20032;-71
2021/05/08 04:20:06;;;;;;;3.53;2.70;;;;;;;;;;5075720;28;20037;-70
2021/05/08 04:22:33;;;;;;;3.08;2.70;;;;;;;;;;5078180;28;20081;-70
2021/05/08 04:24:59;;;;;;;3.42;2.60;;;;;;;;;;5095547;28;20545;-70
2021/05/08 04:27:25;;;;;;;2.60;2.40;;;;;;;;;;5095661;28;20016;-69
2021/05/08 04:29:51;;;;;;;3.22;2.47;;;;;;;;;;5095360;28;20073;-69
2021/05/08 04:32:17;;;;;;;2.70;2.22;;;;;;;;;;5094397;28;20099;-70
2021/05/08 04:34:43;;;;;;;2.80;2.45;;;;;;;;;;5095626;28;20039;-69
2021/05/08 04:37:09;;;;;;;2.92;2.50;;;;;;;;;;5095216;28;20028;-70
2021/05/08 04:39:35;;;;;;;3.75;2.60;;;;;;;;;;5095144;28;20028;-70
2021/05/08 04:42:01;;;;;;;3.47;2.60;;;;;;;;;;5095360;28;20062;-70
2021/05/08 04:44:27;;;;;;;2.67;2.28;;;;;;;;;;5094940;28;20105;-70
2021/05/08 04:46:53;;;;;;;2.90;2.58;;;;;;;;;;5095287;28;20478;-70
2021/05/08 04:49:19;;;;;;;2.72;2.40;;;;;;;;;;5095288;28;20373;-70
2021/05/08 04:51:45;;;;;;;2.53;2.33;;;;;;;;;;5095016;28;20059;-70
2021/05/08 04:54:11;;;;;;;3.20;2.42;;;;;;;;;;5094868;28;20055;-70
2021/05/08 04:56:37;;;;;;;2.53;2.25;;;;;;;;;;5095042;28;20028;-69
2021/05/08 04:59:04;;;;;;;2.83;2.55;;;;;;;;;;5085630;28;20033;-69
2021/05/08 05:01:30;;;;;;;2.90;2.45;;;;;;;;;;5061993;28;20021;-70
2021/05/08 05:03:57;;;;;;;2.67;2.30;;;;;;;;;;5074596;28;20035;-70
2021/05/08 05:06:23;;;;;;;2.28;2.08;;;;;;;;;;5074026;28;20016;-69
2021/05/08 05:08:49;;;;;;;3.80;2.38;;;;;;;;;;5074586;28;20021;-69
2021/05/08 05:11:16;;;;;;;2.72;2.25;;;;;;;;;;5068261;28;20016;-70
2021/05/08 05:13:44;;;;;;;2.60;2.40;;;;;;;;;;5062395;28;20078;-70
2021/05/08 05:16:11;;;;;;;2.50;2.30;;;;;;;;;;5074331;28;20020;-70
2021/05/08 05:18:37;;;;;;;2.75;2.22;;;;;;;;;;5073792;28;20536;-70
2021/05/08 05:21:03;;;;;;;2.60;2.30;;;;;;;;;;5073920;28;20033;-71
2021/05/08 05:23:29;;;;;;;3.30;2.40;;;;;;;;;;5085289;28;20036;-69
2021/05/08 05:25:55;;;;;;;3.15;2.40;;;;;;;;;;5094465;28;20216;-69
2021/05/08 05:28:21;;;;;;;3.40;2.30;;;;;;;;;;5094123;28;20148;-69
2021/05/08 05:30:47;;;;;;;2.30;2.15;;;;;;;;;;5061729;28;20024;-70
2021/05/08 05:33:13;;;;;;;2.50;2.30;;;;;;;;;;5053991;28;20082;-70
2021/05/08 05:35:39;;;;;;;2.42;2.22;;;;;;;;;;5053789;28;20459;-69
2021/05/08 05:38:05;;;;;;;2.63;2.40;;;;;;;;;;5054229;28;20025;-69
2021/05/08 05:40:32;;;;;;;2.17;1.98;;;;;;;;;;5053982;28;20035;-69
2021/05/08 05:42:58;;;;;;;3.00;2.13;;;;;;;;;;5053617;28;20375;-69
2021/05/08 05:45:24;;;;;;;2.67;2.22;;;;;;;;;;5053932;28;20049;-70
2021/05/08 05:47:59;;;;;;;2.53;2.33;;;;;;;;;;5054023;28;20024;-70
2021/05/08 05:50:25;;;;;;;2.28;2.08;;;;;;;;;;5052516;28;20144;-69
2021/05/08 05:52:54;;;;;;;2.40;2.20;;;;;;;;;;5053989;28;20043;-70
2021/05/08 05:55:21;;;;;;;2.35;2.15;;;;;;;;;;5053738;28;20021;-70
2021/05/08 05:57:47;;;;;;;2.40;2.20;;;;;;;;;;5053550;28;20367;-69
2021/05/08 06:00:14;;;;;;;2.83;2.22;;;;;;;;;;5053335;28;20021;-70
2021/05/08 06:02:40;;;;;;;2.75;2.20;;;;;;;;;;5053169;28;20154;-70
2021/05/08 06:05:06;;;;;;;2.65;2.30;;;;;;;;;;5052844;28;20100;-70
2021/05/08 06:07:32;;;;;;;2.38;2.17;;;;;;;;;;5053000;28;20021;-70
2021/05/08 06:09:58;;;;;;;2.60;2.25;;;;;;;;;;5052939;28;20028;-70
2021/05/08 06:12:25;;;;;;;2.20;2.00;;;;;;;;;;5052302;28;20028;-69
2021/05/08 06:14:51;;;;;;;2.53;2.20;;;;;;;;;;5053030;28;20028;-70
2021/05/08 06:17:17;;;;;;;3.30;2.45;;;;;;;;;;5052948;28;20473;-69
2021/05/08 06:19:43;;;;;;;2.60;2.00;;;;;;;;;;5052902;28;20033;-69
2021/05/08 06:22:09;;;;;;;2.58;2.20;;;;;;;;;;5053967;28;20037;-70
2021/05/08 06:24:35;;;;;;;2.80;2.15;;;;;;;;;;5092864;28;20028;-69
2021/05/08 06:27:01;;;;;;;2.40;2.20;;;;;;;;;;5063456;28;20028;-70
2021/05/08 06:29:27;;;;;;;2.63;2.08;;;;;;;;;;5052661;28;20074;-69
2021/05/08 06:31:53;;;;;;;2.40;2.20;;;;;;;;;;5052791;28;20458;-70
2021/05/08 06:34:19;;;;;;;2.38;2.10;;;;;;;;;;5052724;28;20481;-70
2021/05/08 06:36:45;;;;;;;2.20;2.00;;;;;;;;;;5052674;28;20029;-70
2021/05/08 06:39:11;;;;;;;2.42;2.15;;;;;;;;;;5052952;28;20532;-70
2021/05/08 06:41:37;;;;;;;2.45;2.25;;;;;;;;;;5052767;28;20118;-70
2021/05/08 06:44:04;;;;;;;3.38;2.22;;;;;;;;;;5052306;28;20082;-70
2021/05/08 06:46:30;;;;;;;2.42;2.13;;;;;;;;;;5052632;28;20045;-69
2021/05/08 06:48:56;;;;;;;3.15;2.17;;;;;;;;;;5052494;28;20069;-69
2021/05/08 06:51:22;;;;;;;2.28;2.08;;;;;;;;;;5052482;28;20032;-69
2021/05/08 06:53:48;;;;;;;2.38;2.17;;;;;;;;;;5052276;28;20033;-69
2021/05/08 06:56:14;;;;;;;3.30;2.60;;;;;;;;;;5051263;28;20494;-69
2021/05/08 06:58:41;;;;;;;2.20;2.00;;;;;;;;;;5051810;28;20099;-69
2021/05/08 07:01:07;;;;;;;2.90;2.13;;;;;;;;;;5056953;28;20028;-69
2021/05/08 07:03:33;;;;;;;2.20;2.00;;;;;;;;;;5071993;28;20032;-70
2021/05/08 07:05:59;;;;;;;2.65;2.45;;;;;;;;;;5071886;28;20079;-69
2021/05/08 07:08:25;;;;;;;2.00;1.75;;;;;;;;;;5072110;28;20017;-69
2021/05/08 07:10:52;;;;;;;2.53;2.13;;;;;;;;;;5060611;28;20082;-70
2021/05/08 07:13:18;;;;;;;2.40;2.20;;;;;;;;;;5051664;28;20076;-69
2021/05/08 07:15:44;;;;;;;2.08;1.90;;;;;;;;;;5052549;28;20033;-70
2021/05/08 07:18:10;;;;;;;2.45;2.22;;;;;;;;;;5052324;28;20486;-69
2021/05/08 07:20:38;;;;;;;2.58;2.15;;;;;;;;;;5051691;28;20100;-70
2021/05/08 07:23:04;;;;;;;2.13;1.92;;;;;;;;;;5065020;28;20028;-69
2021/05/08 07:25:30;;;;;;;2.30;2.10;;;;;;;;;;5063658;28;20017;-69
2021/05/08 07:28:13;;;;;;;2.15;2.05;;;;;;;;;;5058101;28;20021;-69
2021/05/08 07:30:39;;;;;;;2.10;1.90;;;;;;;;;;5075675;28;20470;-69
2021/05/08 07:33:05;;;;;;;2.50;2.10;;;;;;;;;;5062767;28;20044;-69
2021/05/08 07:35:31;;;;;;;1.95;1.85;;;;;;;;;;5055916;28;20032;-69
2021/05/08 07:37:57;;;;;;;2.40;2.20;;;;;;;;;;5056319;28;20029;-69
2021/05/08 07:40:23;;;;;;;2.03;1.92;;;;;;;;;;5059167;28;20025;-70
2021/05/08 07:42:49;;;;;;;2.42;2.10;;;;;;;;;;5075947;28;20790;-69
2021/05/08 07:45:15;;;;;;;2.20;1.95;;;;;;;;;;5076153;28;20488;-69
2021/05/08 07:47:41;;;;;;;2.17;1.90;;;;;;;;;;5075951;28;20025;-69
2021/05/08 07:50:08;;;;;;;2.35;2.15;;;;;;;;;;5075861;28;20056;-70
2021/05/08 07:52:34;;;;;;;1.92;1.83;;;;;;;;;;5075758;28;20029;-70
2021/05/08 07:55:00;;;;;;;2.75;2.20;;;;;;;;;;5075796;28;20138;-70
2021/05/08 07:57:27;;;;;;;2.45;2.20;;;;;;;;;;5087866;28;20356;-69
2021/05/08 07:59:53;;;;;;;1.98;1.88;;;;;;;;;;5055732;28;20033;-70
2021/05/08 08:02:19;;;;;;;2.08;1.88;;;;;;;;;;5055788;28;20490;-69
2021/05/08 08:04:45;;;;;;;2.25;2.05;;;;;;;;;;5055376;28;20033;-69
2021/05/08 08:07:11;;;;;;;1.75;1.65;;;;;;;;;;5055568;28;20029;-69
2021/05/08 08:09:37;;;;;;;2.53;2.10;;;;;;;;;;5055336;28;20097;-69
2021/05/08 08:12:03;;;;;;;2.25;2.05;;;;;;;;;;5055283;28;20356;-69
2021/05/08 08:14:29;;;;;;;2.30;2.10;;;;;;;;;;5055215;28;20566;-70
2021/05/08 08:16:55;;;;;;;2.45;2.03;;;;;;;;;;5055139;28;20383;-70
2021/05/08 08:19:21;;;;;;;1.92;1.83;;;;;;;;;;5055342;28;20027;-69
2021/05/08 08:21:47;;;;;;;2.05;1.85;;;;;;;;;;5055386;28;20064;-70
2021/05/08 08:24:13;;;;;;;1.80;1.70;;;;;;;;;;5091356;28;20028;-71
2021/05/08 08:26:39;;;;;;;2.22;2.00;;;;;;;;;;5073719;28;20083;-70
2021/05/08 08:29:05;;;;;;;2.58;1.83;;;;;;;;;;5055290;28;20070;-70
2021/05/08 08:31:31;;;;;;;1.80;1.70;;;;;;;;;;5057806;28;20466;-69
2021/05/08 08:33:57;;;;;;;2.72;1.88;;;;;;;;;;5074835;28;20575;-69
2021/05/08 08:36:24;;;;;;;2.28;2.08;;;;;;;;;;5073985;28;20477;-69
2021/05/08 08:38:50;;;;;;;1.98;1.67;;;;;;;;;;5074890;28;20059;-70
2021/05/08 08:41:16;;;;;;;2.20;2.00;;;;;;;;;;5073780;28;20070;-69
2021/05/08 08:43:43;;;;;;;1.88;1.77;;;;;;;;;;5073904;28;20046;-70
2021/05/08 08:46:10;;;;;;;2.00;1.90;;;;;;;;;;5073383;28;20027;-69
2021/05/08 08:48:36;;;;;;;1.88;1.77;;;;;;;;;;5073420;28;20052;-70
2021/05/08 08:51:02;;;;;;;2.42;1.90;;;;;;;;;;5074375;28;20024;-70
2021/05/08 08:53:28;;;;;;;2.17;1.98;;;;;;;;;;5075169;28;20028;-70
2021/05/08 08:55:55;;;;;;;2.00;1.80;;;;;;;;;;5074093;28;20024;-70
2021/05/08 08:58:42;;;;;;;1.67;1.58;;;;;;;;;;5073737;28;20024;-69
2021/05/08 09:01:08;;;;;;;2.08;1.77;;;;;;;;;;5074520;28;20024;-69
2021/05/08 09:03:34;;;;;;;2.20;2.03;;;;;;;;;;5074065;28;20041;-70
2021/05/08 09:06:01;;;;;;;1.98;1.77;;;;;;;;;;5074533;28;20025;-70
2021/05/08 09:08:29;;;;;;;2.13;1.90;;;;;;;;;;5074747;28;20096;-70
2021/05/08 09:10:55;;;;;;;;;;;;;;;;;;5062300;28;20056;-69
2021/05/08 09:13:22;;;;;;;1.92;1.83;;;;;;;;;;5053594;28;19998;-70
2021/05/08 09:15:48;;;;;;;2.10;2.00;;;;;;;;;;5053816;28;20028;-69
2021/05/08 09:18:35;;;;;;;1.98;1.88;;;;;;;;;;5053558;28;20032;-69
2021/05/08 09:21:01;;;;;;;2.33;2.13;;;;;;;;;;5053787;28;20025;-69
2021/05/08 09:23:33;;;;;;;2.22;1.98;;;;;;;;;;5077667;28;20032;-69
2021/05/08 09:26:00;;;;;;;1.90;1.80;;;;;;;;;;5092568;28;20031;-70
2021/05/08 09:28:26;;;;;;;1.95;1.85;;;;;;;;;;5085007;28;20021;-69
2021/05/08 09:30:53;;;;;;;1.90;1.77;;;;;;;;;;5052933;28;20049;-70
2021/05/08 09:33:26;;;;;;;2.08;1.90;;;;;;;;;;5071156;28;20035;-70
2021/05/08 09:35:59;;;;;;;2.38;1.92;;;;;;;;;;5072632;28;20021;-69
2021/05/08 09:38:29;;;;;;;1.77;1.67;;;;;;;;;;5073848;28;20033;-70
2021/05/08 09:40:55;;;;;;;2.17;1.98;;;;;;;;;;5073301;28;20046;-70
2021/05/08 09:43:21;;;;;;;1.90;1.80;;;;;;;;;;5073448;28;20132;-70
2021/05/08 09:45:50;;;;;;;2.67;2.10;;;;;;;;;;5073578;28;20024;-69
2021/05/08 09:48:19;;;;;;;2.00;1.90;;;;;;;;;;5071288;28;20035;-69
2021/05/08 09:50:45;;;;;;;1.85;1.75;;;;;;;;;;5073397;28;20024;-69
2021/05/08 09:53:11;;;;;;;1.90;1.80;;;;;;;;;;5072368;28;20093;-69
2021/05/08 09:55:38;;;;;;;2.08;1.88;;;;;;;;;;5072289;28;20028;-70
2021/05/08 09:58:05;;;;;;;2.10;1.90;;;;;;;;;;5073571;28;20035;-69
2021/05/08 10:00:31;;;;;;;2.25;1.95;;;;;;;;;;5073091;28;20099;-69
2021/05/08 10:03:01;;;;;;;2.00;1.90;;;;;;;;;;5070209;28;20503;-69
2021/05/08 10:05:27;;;;;;;1.73;1.63;;;;;;;;;;5073254;28;20025;-69
2021/05/08 10:07:53;;;;;;;1.77;1.67;;;;;;;;;;5073288;28;20086;-69
2021/05/08 10:10:19;;;;;;;1.73;1.63;;;;;;;;;;5071957;28;20025;-69
2021/05/08 10:12:45;;;;;;;1.80;1.70;;;;;;;;;;5072608;28;20032;-70
2021/05/08 10:15:12;;;;;;;1.75;1.65;;;;;;;;;;5072862;28;20104;-69
2021/05/08 10:17:38;;;;;;;1.80;1.70;;;;;;;;;;5070581;28;20524;-69
2021/05/08 10:20:04;;;;;;;1.60;1.50;;;;;;;;;;5072584;28;20541;-70
2021/05/08 10:22:34;;;;;;;1.67;1.58;;;;;;;;;;5076244;28;20016;-69
2021/05/08 10:25:02;;;;;;;1.85;1.70;;;;;;;;;;5091502;28;20462;-69
2021/05/08 10:27:28;;;;;;;2.53;1.70;;;;;;;;;;5078388;28;20032;-70
2021/05/08 10:29:54;;;;;;;1.70;1.60;;;;;;;;;;5072662;28;20067;-70
2021/05/08 10:32:20;;;;;;;1.63;1.52;;;;;;;;;;5069718;28;20039;-69
2021/05/08 10:34:50;;;;;;;1.45;1.35;;;;;;;;;;5072208;28;20036;-70
2021/05/08 10:37:17;;;;;;;1.95;1.77;;;;;;;;;;5072405;28;20024;-69
2021/05/08 10:39:56;;;;;;;1.90;1.77;;;;;;;;;;5069763;28;20547;-69
2021/05/08 10:42:41;;;;;;;2.05;1.70;;;;;;;;;;5072158;28;20024;-70
2021/05/08 10:45:16;;;;;;;1.90;1.75;;;;;;;;;;5071703;28;20024;-70
2021/05/08 10:48:02;;;;;;;2.10;1.90;;;;;;;;;;5070614;28;20032;-69
2021/05/08 10:50:30;;;;;;;1.80;1.70;;;;;;;;;;5071915;28;20067;-70
2021/05/08 10:52:59;;;;;;;2.05;1.95;;;;;;;;;;5071663;28;20034;-69
2021/05/08 10:55:25;;;;;;;1.80;1.70;;;;;;;;;;5066335;28;20108;-69
2021/05/08 10:58:10;;;;;;;1.80;1.70;;;;;;;;;;5060834;28;20071;-69
2021/05/08 11:00:49;;;;;;;1.92;1.80;;;;;;;;;;5066771;28;20028;-69
2021/05/08 11:03:15;;;;;;;2.17;1.77;;;;;;;;;;5068113;28;20178;-69
2021/05/08 11:06:02;;;;;;;1.90;1.80;;;;;;;;;;5050773;28;20025;-69
2021/05/08 11:08:28;;;;;;;1.80;1.70;;;;;;;;;;5051120;28;20028;-69
2021/05/08 11:10:54;;;;;;;2.13;1.85;;;;;;;;;;5051367;28;20021;-70
2021/05/08 11:13:21;;;;;;;1.73;1.60;;;;;;;;;;5066516;28;20127;-70
2021/05/08 11:15:52;;;;;;;2.38;1.90;;;;;;;;;;5070172;28;20586;-69
2021/05/08 11:21:32;;;;;;;1.63;1.53;;;;;;;;;;5071475;28;20089;-69
2021/05/08 11:24:05;;;;;;;1.88;1.60;;;;;;;;;;5082133;28;20085;-69
2021/05/08 11:26:41;;;;;;;1.60;1.50;;;;;;;;;;5092049;28;20097;-70
2021/05/08 11:29:11;;;;;;;2.13;1.92;;;;;;;;;;5079827;28;20111;-69
2021/05/08 11:31:37;;;;;;;1.83;1.73;;;;;;;;;;5058561;28;20758;-70
2021/05/08 11:34:08;;;;;;;1.42;1.33;;;;;;;;;;5071448;28;20025;-69
2021/05/08 11:36:47;;;;;;;1.60;1.50;;;;;;;;;;5070203;28;20068;-69
2021/05/08 11:39:14;;;;;;;1.60;1.50;;;;;;;;;;5070241;28;20100;-69
2021/05/08 11:41:40;;;;;;;1.73;1.63;;;;;;;;;;5071342;28;20029;-70
2021/05/08 11:44:06;;;;;;;1.80;1.63;;;;;;;;;;5071105;28;20755;-69
2021/05/08 11:46:33;;;;;;;1.75;1.50;;;;;;;;;;5070572;28;20127;-69
2021/05/08 11:48:59;;;;;;;1.70;1.60;;;;;;;;;;5071780;28;20017;-69
2021/05/08 11:51:26;;;;;;;1.65;1.55;;;;;;;;;;5071408;28;20124;-70
2021/05/08 11:54:11;;;;;;;1.67;1.58;;;;;;;;;;5070975;28;20028;-69
2021/05/08 11:56:37;;;;;;;1.42;1.33;;;;;;;;;;5070579;28;20032;-71
2021/05/08 11:59:03;;;;;;;1.73;1.63;;;;;;;;;;5070617;28;20028;-69
2021/05/08 12:01:30;;;;;;;1.83;1.67;;;;;;;;;;5070181;28;20029;-70
2021/05/08 12:03:57;;;;;;;1.70;1.60;;;;;;;;;;5071387;28;20077;-70
2021/05/08 12:06:23;;;;;;;1.50;1.40;;;;;;;;;;5071352;28;20021;-69
2021/05/08 12:08:49;;;;;;;1.40;1.30;;;;;;;;;;5070423;28;20012;-69
2021/05/08 12:11:19;;;;;;;1.48;1.38;;;;;;;;;;5071186;28;20036;-69
2021/05/08 12:13:45;;;;;;;2.50;1.58;;;;;;;;;;5069951;28;20057;-69
2021/05/08 12:16:11;;;;;;;1.70;1.60;;;;;;;;;;5071003;28;20031;-69
2021/05/08 12:18:38;;;;;;;2.33;1.38;;;;;;;;;;5073624;28;20031;-69
2021/05/08 12:21:05;;;;;;;1.63;1.52;;;;;;;;;;5074656;28;20108;-69
2021/05/08 12:23:31;;;;;;;2.10;1.90;;;;;;;;;;5087209;28;20024;-69
2021/05/08 12:26:06;;;;;;;4.00;1.92;;;;;;;;;;5095298;28;20039;-69
2021/05/08 12:28:59;;;;;;;1.40;1.30;;;;;;;;;;5072507;28;20025;-69
2021/05/08 12:31:28;;;;;;;1.70;1.60;;;;;;;;;;5052157;28;20561;-69
2021/05/08 12:33:55;;;;;;;1.80;1.33;;;;;;;;;;5054697;28;20135;-69
2021/05/08 12:36:23;;;;;;;1.50;1.40;;;;;;;;;;5054753;28;20395;-70
2021/05/08 12:38:49;;;;;;;1.58;1.48;;;;;;;;;;5054176;28;20516;-69
2021/05/08 12:41:27;;;;;;;1.60;1.50;;;;;;;;;;5053617;28;20074;-69
2021/05/08 12:44:06;;;;;;;1.50;1.40;;;;;;;;;;5054843;28;20025;-70
2021/05/08 12:46:51;;;;;;;1.25;1.20;;;;;;;;;;5054022;28;20052;-69
2021/05/08 12:49:20;;;;;;;1.52;1.40;;;;;;;;;;5054840;28;20021;-69
2021/05/08 12:51:46;;;;;;;1.50;1.40;;;;;;;;;;5052659;28;20025;-69
2021/05/08 12:54:30;;;;;;;1.48;1.38;;;;;;;;;;5053277;28;20025;-69
2021/05/08 12:56:56;;;;;;;1.63;1.52;;;;;;;;;;5053372;28;20735;-69
2021/05/08 12:59:30;;;;;;;2.22;1.35;;;;;;;;;;5052339;28;20103;-69
2021/05/08 13:02:11;;;;;;;1.80;1.70;;;;;;;;;;5054069;28;20467;-69
2021/05/08 13:04:41;;;;;;;1.70;1.60;;;;;;;;;;5070044;28;20098;-69
2021/05/08 13:07:39;;;;;;;1.42;1.33;;;;;;;;;;5073095;28;20186;-69
2021/05/08 13:10:24;;;;;;;1.55;1.40;;;;;;;;;;5029747;28;20101;-70
2021/05/08 13:12:51;;;;;;;2.20;1.63;;;;;;;;;;5073328;28;20041;-70
2021/05/08 13:15:18;;;;;;;3.92;1.80;;;;;;;;;;5073191;28;20016;-69
2021/05/08 13:17:50;;;;;;;1.70;1.60;;;;;;;;;;5073829;28;20029;-69
2021/05/08 13:20:17;;;;;;;2.15;1.42;;;;;;;;;;5073683;28;20286;-69
2021/05/08 13:22:43;;;;;;;1.73;1.30;;;;;;;;;;5077154;28;20020;-70
2021/05/08 13:25:14;;;;;;;1.60;1.50;;;;;;;;;;5093813;28;20047;-70
2021/05/08 13:27:42;;;;;;;1.55;1.45;;;;;;;;;;5093853;28;20146;-69
2021/05/08 13:30:09;;;;;;;1.60;1.50;;;;;;;;;;5091921;28;20028;-69
2021/05/08 13:32:35;;;;;;;2.88;1.73;;;;;;;;;;5093337;28;20031;-69
2021/05/08 13:35:01;;;;;;;1.65;1.38;;;;;;;;;;5093747;28;20032;-69
2021/05/08 13:37:27;;;;;;;2.55;1.58;;;;;;;;;;5093001;28;20059;-69
2021/05/08 13:39:53;;;;;;;1.60;1.50;;;;;;;;;;5093757;28;20035;-70
2021/05/08 13:42:19;;;;;;;2.85;1.63;;;;;;;;;;5093493;28;20099;-69
2021/05/08 13:44:45;;;;;;;3.17;1.50;;;;;;;;;;5092345;28;20493;-69
2021/05/08 13:47:21;;;;;;;1.58;1.48;;;;;;;;;;5082745;28;20028;-69
2021/05/08 13:49:48;;;;;;;2.80;1.30;;;;;;;;;;5062111;28;20032;-69
2021/05/08 13:52:14;;;;;;;2.97;1.60;;;;;;;;;;5072232;28;20462;-69
2021/05/08 13:54:40;;;;;;;1.45;1.35;;;;;;;;;;5071799;28;20078;-69
2021/05/08 13:57:06;;;;;;;3.17;1.35;;;;;;;;;;5073205;28;20116;-69
2021/05/08 13:59:32;;;;;;;1.23;1.20;;;;;;;;;;5071961;28;20021;-69
2021/05/08 14:01:58;;;;;;;2.55;1.38;;;;;;;;;;5072792;28;20035;-69
2021/05/08 14:04:24;;;;;;;2.42;1.35;;;;;;;;;;5067243;28;20029;-69
2021/05/08 14:06:50;;;;;;;1.75;1.20;;;;;;;;;;5052393;28;20025;-69
2021/05/08 14:09:16;;;;;;;2.72;1.45;;;;;;;;;;5052675;28;20526;-69
2021/05/08 14:11:42;;;;;;;3.28;1.63;;;;;;;;;;5052650;28;20036;-69
2021/05/08 14:14:08;;;;;;;2.08;1.30;;;;;;;;;;5051801;28;20128;-69
2021/05/08 14:16:34;;;;;;;1.55;1.45;;;;;;;;;;5052574;28;20032;-69
2021/05/08 14:19:02;;;;;;;1.20;1.10;;;;;;;;;;5052931;28;20033;-69
2021/05/08 14:21:28;;;;;;;1.65;1.55;;;;;;;;;;5050800;28;20021;-69
2021/05/08 14:23:54;;;;;;;1.98;1.30;;;;;;;;;;5080910;28;20796;-69
2021/05/08 14:26:20;;;;;;;1.67;1.45;;;;;;;;;;5092821;28;20320;-68
2021/05/08 14:28:46;;;;;;;3.88;1.50;;;;;;;;;;5080016;28;20024;-69
2021/05/08 14:31:12;;;;;;;2.92;1.50;;;;;;;;;;5051407;28;20104;-69
2021/05/08 14:33:38;;;;;;;3.70;1.35;;;;;;;;;;5052665;28;20032;-69
2021/05/08 14:36:04;;;;;;;1.63;1.30;;;;;;;;;;5051688;28;20021;-69
2021/05/08 14:38:30;;;;;;;1.92;1.63;;;;;;;;;;5065489;28;20036;-70
2021/05/08 14:40:56;;;;;;;1.73;1.30;;;;;;;;;;5071921;28;20078;-69
2021/05/08 14:43:23;;;;;;;3.42;1.30;;;;;;;;;;5071174;28;20071;-69
2021/05/08 14:45:49;;;;;;;1.40;1.30;;;;;;;;;;5071888;28;20025;-69
2021/05/08 14:48:15;;;;;;;1.58;1.48;;;;;;;;;;5072181;28;20024;-69